createdAt,value
2022-11-25T00:01:12.691Z,1.42
2022-11-25T00:03:40.672Z,1.73
2022-11-25T00:06:21.995Z,2.10
2022-11-25T00:08:54.765Z,2.22
2022-11-25T00:11:21.386Z,2.70
2022-11-25T00:13:48.591Z,2.88
2022-11-25T00:16:20.062Z,2.45
2022-11-25T00:18:52.217Z,2.17
2022-11-25T00:21:28.934Z,2.78
2022-11-25T00:23:57.886Z,2.10
2022-11-25T00:26:28.944Z,2.08
2022-11-25T00:28:58.814Z,1.83
2022-11-25T00:31:29.734Z,3.20
2022-11-25T00:33:56.671Z,2.53
2022-11-25T00:36:28.924Z,2.92
2022-11-25T00:39:00.792Z,1.80
2022-11-25T00:41:47.013Z,2.08
2022-11-25T00:44:38.890Z,2.05
2022-11-25T00:47:14.483Z,2.40
2022-11-25T00:49:43.802Z,2.28
2022-11-25T00:52:15.358Z,2.67
2022-11-25T00:54:45.416Z,2.22
2022-11-25T00:57:13.423Z,2.70
2022-11-25T00:59:40.363Z,2.45
2022-11-25T01:02:07.415Z,3.03
2022-11-25T01:04:36.079Z,2.60
2022-11-25T01:07:04.064Z,2.95
2022-11-25T01:09:31.063Z,3.22
2022-11-25T01:11:57.907Z,3.10
2022-11-25T01:14:24.713Z,2.47
2022-11-25T01:16:54.684Z,2.42
2022-11-25T01:19:22.164Z,2.88
2022-11-25T01:21:48.832Z,2.40
2022-11-25T01:24:16.614Z,2.90
2022-11-25T01:26:44.719Z,2.33
2022-11-25T01:29:17.565Z,3.38
2022-11-25T01:31:45.502Z,2.10
2022-11-25T01:34:18.558Z,2.10
2022-11-25T01:36:45.811Z,2.08
2022-11-25T01:39:18.061Z,1.90
2022-11-25T01:41:45.816Z,2.35
2022-11-25T01:44:18.639Z,2.58
2022-11-25T01:47:04.830Z,2.63
2022-11-25T01:49:52.223Z,1.92
2022-11-25T01:52:32.634Z,2.42
2022-11-25T01:55:06.957Z,2.72
2022-11-25T01:57:42.298Z,2.10
2022-11-25T02:00:11.051Z,2.17
2022-11-25T02:02:38.351Z,2.38
2022-11-25T02:05:09.527Z,1.23
2022-11-25T02:07:44.222Z,2.28
2022-11-25T02:10:14.755Z,2.17
2022-11-25T02:12:43.699Z,2.08
2022-11-25T02:15:13.229Z,2.30
2022-11-25T02:17:40.838Z,2.33
2022-11-25T02:20:11.664Z,2.47
2022-11-25T02:22:55.129Z,2.42
2022-11-25T02:25:34.284Z,2.42
2022-11-25T02:28:16.803Z,2.60
2022-11-25T02:30:44.691Z,2.25
2022-11-25T02:33:12.153Z,2.25
2022-11-25T02:35:51.196Z,1.83
2022-11-25T02:38:32.405Z,1.95
2022-11-25T02:41:16.531Z,1.75
2022-11-25T02:43:43.360Z,2.08
2022-11-25T02:46:21.598Z,1.73
2022-11-25T02:49:09.347Z,2.38
2022-11-25T02:51:41.478Z,2.70
2022-11-25T02:54:08.200Z,2.80
2022-11-25T02:56:36.401Z,2.47
2022-11-25T03:01:35.498Z,2.53
2022-11-25T03:04:04.959Z,2.75
2022-11-25T03:06:31.640Z,2.17
2022-11-25T03:09:05.381Z,2.22
2022-11-25T03:11:53.388Z,2.28
2022-11-25T03:16:47.084Z,2.65
2022-11-25T03:19:14.048Z,2.10
2022-11-25T03:21:40.667Z,2.97
2022-11-25T03:24:07.350Z,2.50
2022-11-25T03:26:35.809Z,2.47
2022-11-25T03:29:03.057Z,2.30
2022-11-25T03:31:30.113Z,2.85
2022-11-25T03:33:58.476Z,2.10
2022-11-25T03:38:52.207Z,1.92
2022-11-25T03:41:19.784Z,1.40
2022-11-25T03:43:47.525Z,2.13
2022-11-25T03:46:16.589Z,2.13
2022-11-25T03:48:44.339Z,2.10
2022-11-25T03:51:11.130Z,1.98
2022-11-25T03:53:38.314Z,2.72
2022-11-25T03:56:05.317Z,2.35
2022-11-25T03:58:33.496Z,2.10
2022-11-25T04:01:01.958Z,2.30
2022-11-25T04:03:30.194Z,1.95
2022-11-25T04:06:02.224Z,2.00
2022-11-25T04:08:32.010Z,2.35
2022-11-25T04:11:01.644Z,1.98
2022-11-25T04:13:28.365Z,1.88
2022-11-25T04:15:59.063Z,1.88
2022-11-25T04:18:26.435Z,2.53
2022-11-25T04:20:54.449Z,2.00
2022-11-25T04:23:21.363Z,1.50
2022-11-25T04:25:50.548Z,2.20
2022-11-25T04:28:18.228Z,1.60
2022-11-25T04:30:46.160Z,1.38
2022-11-25T04:33:12.689Z,1.42
2022-11-25T04:35:39.225Z,1.80
2022-11-25T04:38:06.024Z,1.35
2022-11-25T04:40:33.169Z,1.75
2022-11-25T04:43:06.044Z,1.60
2022-11-25T04:45:58.694Z,1.00
2022-11-25T04:48:27.273Z,1.30
2022-11-25T04:50:55.756Z,1.33
2022-11-25T04:53:25.081Z,0.60
2022-11-25T04:55:51.763Z,1.30
2022-11-25T04:58:38.638Z,1.30
2022-11-25T05:01:05.687Z,0.85
2022-11-25T05:03:32.592Z,1.10
2022-11-25T05:06:08.182Z,0.80
2022-11-25T05:08:35.707Z,0.95
2022-11-25T05:11:02.406Z,1.30
2022-11-25T05:13:28.916Z,1.20
2022-11-25T05:15:59.162Z,1.13
2022-11-25T05:18:26.934Z,1.40
2022-11-25T05:20:54.012Z,1.15
2022-11-25T05:23:20.857Z,1.15
2022-11-25T05:25:47.729Z,1.08
2022-11-25T05:28:14.623Z,1.15
2022-11-25T05:30:45.852Z,1.27
2022-11-25T05:33:12.537Z,1.45
2022-11-25T05:35:40.029Z,1.10
2022-11-25T05:38:09.053Z,1.13
2022-11-25T05:40:35.556Z,0.90
2022-11-25T05:43:03.049Z,1.10
2022-11-25T05:45:30.673Z,0.80
2022-11-25T05:47:58.118Z,0.80
2022-11-25T05:50:26.218Z,1.53
2022-11-25T05:52:53.205Z,1.50
2022-11-25T05:55:20.156Z,1.20
2022-11-25T05:57:46.853Z,1.50
2022-11-25T06:00:14.245Z,1.15
2022-11-25T06:02:44.556Z,1.27
2022-11-25T06:05:11.601Z,1.65
2022-11-25T06:07:38.146Z,1.27
2022-11-25T06:10:05.763Z,1.20
2022-11-25T06:12:32.603Z,1.17
2022-11-25T06:14:59.443Z,1.00
2022-11-25T06:17:26.338Z,1.00
2022-11-25T06:19:53.247Z,0.85
2022-11-25T06:22:19.869Z,1.25
2022-11-25T06:24:50.988Z,1.38
2022-11-25T06:27:23.424Z,0.77
2022-11-25T06:29:50.820Z,1.15
2022-11-25T06:32:17.875Z,1.20
2022-11-25T06:34:45.143Z,1.00
2022-11-25T06:37:14.020Z,0.98
2022-11-25T06:39:41.283Z,1.30
2022-11-25T06:42:08.114Z,1.55
2022-11-25T06:44:36.629Z,1.08
2022-11-25T06:47:03.436Z,1.30
2022-11-25T06:49:30.741Z,1.15
2022-11-25T06:52:00.324Z,1.20
2022-11-25T06:54:26.974Z,1.30
2022-11-25T06:56:54.104Z,1.48
2022-11-25T06:59:22.325Z,1.35
2022-11-25T07:01:50.303Z,1.30
2022-11-25T07:04:16.920Z,1.48
2022-11-25T07:06:43.720Z,1.40
2022-11-25T07:09:10.508Z,1.38
2022-11-25T07:11:40.601Z,1.30
2022-11-25T07:14:12.688Z,1.35
2022-11-25T07:16:43.520Z,1.35
2022-11-25T07:19:12.401Z,1.42
2022-11-25T07:21:39.460Z,1.40
2022-11-25T07:24:07.511Z,1.20
2022-11-25T07:26:38.641Z,1.45
2022-11-25T07:29:23.507Z,1.48
2022-11-25T07:31:55.453Z,1.83
2022-11-25T07:34:23.994Z,1.90
2022-11-25T07:36:51.062Z,1.90
2022-11-25T07:39:23.474Z,2.08
2022-11-25T07:41:51.657Z,2.00
2022-11-25T07:44:18.855Z,1.83
2022-11-25T07:46:49.463Z,1.70
2022-11-25T07:49:19.115Z,1.38
2022-11-25T07:51:53.827Z,1.80
2022-11-25T07:54:21.998Z,1.85
2022-11-25T07:56:49.905Z,1.70
2022-11-25T07:59:24.872Z,1.95
2022-11-25T08:01:55.693Z,2.47
2022-11-25T08:04:22.984Z,1.95
2022-11-25T08:06:52.153Z,2.42
2022-11-25T08:09:21.759Z,2.00
2022-11-25T08:11:52.088Z,1.73
2022-11-25T08:14:19.162Z,2.22
2022-11-25T08:16:45.957Z,2.25
2022-11-25T08:19:15.478Z,2.17
2022-11-25T08:21:42.956Z,2.13
2022-11-25T08:24:18.065Z,1.90
2022-11-25T08:26:48.604Z,2.63
2022-11-25T08:29:17.995Z,2.08
2022-11-25T08:31:44.673Z,2.10
2022-11-25T08:34:20.962Z,2.22
2022-11-25T08:36:48.805Z,2.28
2022-11-25T08:39:51.325Z,2.15
2022-11-25T08:42:07.810Z,2.00
2022-11-25T08:44:37.929Z,1.88
2022-11-25T08:47:06.817Z,2.08
2022-11-25T08:49:39.063Z,2.03
2022-11-25T08:52:08.123Z,2.30
2022-11-25T08:54:34.841Z,2.00
2022-11-25T08:57:03.565Z,2.25
2022-11-25T08:59:32.485Z,2.47
2022-11-25T09:02:00.719Z,2.45
2022-11-25T09:04:27.480Z,2.20
2022-11-25T09:06:54.324Z,1.73
2022-11-25T09:09:20.981Z,2.08
2022-11-25T09:11:47.745Z,2.33
2022-11-25T09:14:14.456Z,2.30
2022-11-25T09:16:43.540Z,2.53
2022-11-25T09:19:10.902Z,2.17
2022-11-25T09:21:37.921Z,2.15
2022-11-25T09:24:06.783Z,1.73
2022-11-25T09:26:35.836Z,1.88
2022-11-25T09:29:03.381Z,2.17
2022-11-25T09:31:30.417Z,1.80
2022-11-25T09:34:00.035Z,2.17
2022-11-25T09:36:26.697Z,2.08
2022-11-25T09:38:57.565Z,2.10
2022-11-25T09:42:04.844Z,1.90
2022-11-25T09:47:35.750Z,1.90
2022-11-25T09:50:12.925Z,2.00
2022-11-25T09:53:10.904Z,2.28
2022-11-25T09:55:45.862Z,2.15
2022-11-25T09:58:39.029Z,2.13
2022-11-25T10:01:14.011Z,2.47
2022-11-25T10:03:47.895Z,1.95
2022-11-25T10:06:25.096Z,2.45
2022-11-25T10:08:58.394Z,1.80
2022-11-25T10:11:28.556Z,2.45
2022-11-25T10:13:58.300Z,2.10
2022-11-25T10:16:30.504Z,2.15
2022-11-25T10:19:11.128Z,1.88
2022-11-25T10:21:40.724Z,2.03
2022-11-25T10:24:14.643Z,1.85
2022-11-25T10:26:45.439Z,2.08
2022-11-25T10:29:15.028Z,2.08
2022-11-25T10:31:44.116Z,1.77
2022-11-25T10:34:37.122Z,2.10
2022-11-25T10:37:10.869Z,2.17
2022-11-25T10:39:38.078Z,2.30
2022-11-25T10:42:15.739Z,2.37
2022-11-25T10:44:42.562Z,2.65
2022-11-25T10:47:30.910Z,2.05
2022-11-25T10:50:07.855Z,2.40
2022-11-25T10:52:44.542Z,2.63
2022-11-25T10:55:31.686Z,2.35
2022-11-25T10:58:02.084Z,2.38
2022-11-25T11:00:36.228Z,2.58
2022-11-25T11:03:26.885Z,2.60
2022-11-25T11:05:54.739Z,2.55
2022-11-25T11:08:26.654Z,2.58
2022-11-25T11:11:24.555Z,2.55
2022-11-25T11:14:11.927Z,3.28
2022-11-25T11:16:43.095Z,2.20
2022-11-25T11:19:28.005Z,3.13
2022-11-25T11:21:56.311Z,2.75
2022-11-25T11:24:32.046Z,2.80
2022-11-25T11:27:21.589Z,3.53
2022-11-25T11:29:49.984Z,3.92
2022-11-25T11:32:28.607Z,3.10
2022-11-25T11:35:13.906Z,2.88
2022-11-25T11:37:46.413Z,2.60
2022-11-25T11:40:25.644Z,2.50
2022-11-25T11:43:01.462Z,2.83
2022-11-25T11:45:45.702Z,2.70
2022-11-25T11:48:20.979Z,2.92
2022-11-25T11:50:51.002Z,2.78
2022-11-25T11:53:42.512Z,2.45
2022-11-25T11:56:35.354Z,2.60
2022-11-25T11:59:23.600Z,2.80
2022-11-25T12:02:20.729Z,2.40
2022-11-25T12:04:59.857Z,1.85
2022-11-25T12:07:53.358Z,3.05
2022-11-25T12:10:48.470Z,2.05
2022-11-25T12:13:33.221Z,2.58
2022-11-25T12:16:12.828Z,3.00
2022-11-25T12:19:02.094Z,3.00
2022-11-25T12:21:50.681Z,2.55
2022-11-25T12:24:39.502Z,2.60
2022-11-25T12:27:18.872Z,1.95
2022-11-25T12:29:50.964Z,2.67
2022-11-25T12:32:54.879Z,2.53
2022-11-25T12:35:37.041Z,2.17
2022-11-25T12:38:22.546Z,2.53
2022-11-25T12:41:16.547Z,2.33
2022-11-25T12:43:59.268Z,2.13
2022-11-25T12:46:33.741Z,2.40
2022-11-25T12:49:01.699Z,2.40
2022-11-25T12:54:32.409Z,2.17
2022-11-25T12:57:10.983Z,2.17
2022-11-25T13:00:40.398Z,1.65
2022-11-25T13:03:14.255Z,1.83
2022-11-25T13:05:47.129Z,1.52
2022-11-25T13:08:28.858Z,2.50
2022-11-25T13:11:04.676Z,1.90
2022-11-25T13:13:48.500Z,2.50
2022-11-25T13:16:19.559Z,2.22
2022-11-25T13:18:48.257Z,1.70
2022-11-25T13:21:19.685Z,1.95
2022-11-25T13:23:49.599Z,2.20
2022-11-25T13:26:32.503Z,2.42
2022-11-25T13:29:00.650Z,2.38
2022-11-25T13:33:44.397Z,1.75
2022-11-25T13:36:22.536Z,1.83
2022-11-25T13:38:49.048Z,1.98
2022-11-25T13:41:15.896Z,2.03
2022-11-25T13:44:02.541Z,1.80
2022-11-25T13:46:48.651Z,1.63
2022-11-25T13:49:33.966Z,1.73
2022-11-25T13:52:13.478Z,2.28
2022-11-25T13:54:49.999Z,1.80
2022-11-25T13:57:32.097Z,2.25
2022-11-25T14:00:30.115Z,1.67
2022-11-25T14:03:19.125Z,2.78
2022-11-25T14:06:05.202Z,2.67
2022-11-25T14:08:45.951Z,1.80
2022-11-25T14:11:44.092Z,2.15
2022-11-25T14:14:13.612Z,2.08
2022-11-25T14:17:02.400Z,2.38
2022-11-25T14:19:59.343Z,1.65
2022-11-25T14:22:43.366Z,2.53
2022-11-25T14:25:25.045Z,2.60
2022-11-25T14:28:02.375Z,2.30
2022-11-25T14:30:31.313Z,2.30
2022-11-25T14:33:09.688Z,2.72
2022-11-25T14:35:45.022Z,2.42
2022-11-25T14:38:55.692Z,2.13
2022-11-25T14:41:35.974Z,1.85
2022-11-25T14:44:11.615Z,2.03
2022-11-25T14:46:51.887Z,1.83
2022-11-25T14:49:44.873Z,2.00
2022-11-25T14:52:05.429Z,2.17
2022-11-25T14:54:32.403Z,1.83
2022-11-25T14:56:59.845Z,2.70
2022-11-25T14:59:26.925Z,2.30
2022-11-25T15:01:55.076Z,1.98
2022-11-25T15:04:26.048Z,2.58
2022-11-25T15:06:55.131Z,2.28
2022-11-25T15:09:33.237Z,2.53
2022-11-25T15:12:07.174Z,2.15
2022-11-25T15:14:37.601Z,2.85
2022-11-25T15:17:20.682Z,2.17
2022-11-25T15:19:48.155Z,2.13
2022-11-25T15:22:23.548Z,2.20
2022-11-25T15:24:55.574Z,2.13
2022-11-25T15:27:28.059Z,2.13
2022-11-25T15:29:59.324Z,1.90
2022-11-25T15:32:27.341Z,2.05
2022-11-25T15:34:56.166Z,1.85
2022-11-25T15:37:24.109Z,2.28
2022-11-25T15:40:29.339Z,2.38
2022-11-25T15:43:00.945Z,3.20
2022-11-25T15:45:36.025Z,3.28
2022-11-25T15:48:05.382Z,3.17
2022-11-25T15:50:34.346Z,2.35
2022-11-25T15:53:01.928Z,2.88
2022-11-25T15:55:37.673Z,2.53
2022-11-25T15:58:23.003Z,2.65
2022-11-25T16:01:06.851Z,2.80
2022-11-25T16:03:35.308Z,2.45
2022-11-25T16:06:02.569Z,2.38
2022-11-25T16:08:32.943Z,2.08
2022-11-25T16:11:10.826Z,2.35
2022-11-25T16:13:39.998Z,2.40
2022-11-25T16:16:17.548Z,2.40
2022-11-25T16:18:56.148Z,2.47
2022-11-25T16:21:25.817Z,3.15
2022-11-25T16:23:57.863Z,2.40
2022-11-25T16:26:30.190Z,2.63
2022-11-25T16:29:08.821Z,2.58
2022-11-25T16:31:35.831Z,1.98
2022-11-25T16:34:14.148Z,2.63
2022-11-25T16:36:42.970Z,2.17
2022-11-25T16:39:10.105Z,1.95
2022-11-25T16:41:37.561Z,2.17
2022-11-25T16:44:21.286Z,1.98
2022-11-25T16:46:51.231Z,1.88
2022-11-25T16:49:19.951Z,2.38
2022-11-25T16:51:47.068Z,2.08
2022-11-25T16:54:18.077Z,3.20
2022-11-25T16:56:46.315Z,2.65
2022-11-25T17:01:47.039Z,2.22
2022-11-25T17:04:15.425Z,2.35
2022-11-25T17:09:16.481Z,2.67
2022-11-25T17:11:49.236Z,2.58
2022-11-25T17:14:27.856Z,2.35
2022-11-25T17:16:54.905Z,2.65
2022-11-25T17:19:22.757Z,2.40
2022-11-25T17:21:50.177Z,2.20
2022-11-25T17:24:22.949Z,2.67
2022-11-25T17:26:56.101Z,2.45
2022-11-25T17:29:31.430Z,3.40
2022-11-25T17:32:00.730Z,2.88
2022-11-25T17:34:34.920Z,3.00
2022-11-25T17:37:12.124Z,2.92
2022-11-25T17:39:39.345Z,3.00
2022-11-25T17:46:15.533Z,2.60
2022-11-25T17:48:43.629Z,2.67
2022-11-25T17:51:13.191Z,2.53
2022-11-25T17:53:41.131Z,3.15
2022-11-25T17:56:30.388Z,2.92
2022-11-25T17:59:04.839Z,2.80
2022-11-25T18:01:32.426Z,3.00
2022-11-25T18:04:16.263Z,3.20
2022-11-25T18:06:43.416Z,3.28
2022-11-25T18:09:12.882Z,2.85
2022-11-25T18:11:46.659Z,2.70
2022-11-25T18:14:20.338Z,2.78
2022-11-25T18:16:46.996Z,3.45
2022-11-25T18:19:14.387Z,2.47
2022-11-25T18:21:41.446Z,3.93
2022-11-25T18:24:08.153Z,2.72
2022-11-25T18:26:42.293Z,2.83
2022-11-25T18:29:15.439Z,2.88
2022-11-25T18:31:42.365Z,3.47
2022-11-25T18:34:16.118Z,3.05
2022-11-25T18:36:44.223Z,3.60
2022-11-25T18:39:11.864Z,3.80
2022-11-25T18:41:40.616Z,3.20
2022-11-25T18:44:23.054Z,4.32
2022-11-25T18:46:52.658Z,3.05
2022-11-25T18:49:19.734Z,3.22
2022-11-25T18:51:46.369Z,3.65
2022-11-25T18:54:13.563Z,3.67
2022-11-25T18:56:41.846Z,3.20
2022-11-25T19:01:41.680Z,3.70
2022-11-25T19:04:18.040Z,3.40
2022-11-25T19:06:45.461Z,3.58
2022-11-25T19:09:12.985Z,3.03
2022-11-25T19:11:44.823Z,2.97
2022-11-25T19:14:16.262Z,4.05
2022-11-25T19:16:47.198Z,3.15
2022-11-25T19:19:16.965Z,3.08
2022-11-25T19:21:43.927Z,3.22
2022-11-25T19:24:16.441Z,2.85
2022-11-25T19:27:06.819Z,3.20
2022-11-25T19:30:32.946Z,2.63
2022-11-25T19:33:02.317Z,2.83
2022-11-25T19:35:36.245Z,2.90
2022-11-25T19:38:21.578Z,3.03
2022-11-25T19:40:49.452Z,2.90
2022-11-25T19:43:16.385Z,2.92
2022-11-25T19:45:44.093Z,3.25
2022-11-25T19:48:17.880Z,3.35
2022-11-25T19:50:46.522Z,3.00
2022-11-25T19:53:20.005Z,3.28
2022-11-25T19:55:48.264Z,3.63
2022-11-25T19:58:15.545Z,3.72
2022-11-25T20:00:44.145Z,2.75
2022-11-25T20:03:23.102Z,3.25
2022-11-25T20:05:52.836Z,3.10
2022-11-25T20:08:25.970Z,2.72
2022-11-25T20:10:54.427Z,3.17
2022-11-25T20:13:22.997Z,3.20
2022-11-25T20:15:50.806Z,3.05
2022-11-25T20:18:21.245Z,3.13
2022-11-25T20:20:56.119Z,3.70
2022-11-25T20:23:30.368Z,3.45
2022-11-25T20:25:57.304Z,3.50
2022-11-25T20:28:28.294Z,3.63
2022-11-25T20:30:59.749Z,3.17
2022-11-25T20:33:27.262Z,4.05
2022-11-25T20:36:04.351Z,3.90
2022-11-25T20:38:33.327Z,3.33
2022-11-25T20:41:00.711Z,3.22
2022-11-25T20:43:33.527Z,3.33
2022-11-25T20:46:01.953Z,3.38
2022-11-25T20:48:29.564Z,3.20
2022-11-25T20:51:00.611Z,3.92
2022-11-25T20:53:30.652Z,3.45
2022-11-25T20:55:58.254Z,3.53
2022-11-25T20:58:32.531Z,3.15
2022-11-25T21:00:59.679Z,4.28
2022-11-25T21:03:27.052Z,3.35
2022-11-25T21:05:56.076Z,3.63
2022-11-25T21:08:32.180Z,3.25
2022-11-25T21:10:59.106Z,3.63
2022-11-25T21:13:29.184Z,2.85
2022-11-25T21:15:59.564Z,2.60
2022-11-25T21:18:28.591Z,3.10
2022-11-25T21:20:57.960Z,2.58
2022-11-25T21:23:28.801Z,3.13
2022-11-25T21:26:01.341Z,2.63
2022-11-25T21:28:28.433Z,2.58
2022-11-25T21:30:55.051Z,3.42
2022-11-25T21:33:22.143Z,3.08
2022-11-25T21:35:51.194Z,2.58
2022-11-25T21:38:24.110Z,2.72
2022-11-25T21:40:54.542Z,3.03
2022-11-25T21:43:28.476Z,2.80
2022-11-25T21:46:11.753Z,2.97
2022-11-25T21:48:39.843Z,3.05
2022-11-25T21:51:06.738Z,2.92
2022-11-25T21:53:37.257Z,3.53
2022-11-25T21:56:10.907Z,3.30
2022-11-25T21:58:38.837Z,3.20
2022-11-25T22:01:06.126Z,3.15
2022-11-25T22:03:33.272Z,2.78
2022-11-25T22:06:00.207Z,3.30
2022-11-25T22:08:27.219Z,3.28
2022-11-25T22:10:55.979Z,3.08
2022-11-25T22:13:28.212Z,3.33
2022-11-25T22:15:57.839Z,3.17
2022-11-25T22:18:36.432Z,3.40
2022-11-25T22:21:03.871Z,4.03
2022-11-25T22:23:30.713Z,3.37
2022-11-25T22:25:57.720Z,3.63
2022-11-25T22:28:30.033Z,3.63
2022-11-25T22:31:05.012Z,3.63
2022-11-25T22:33:34.916Z,3.60
2022-11-25T22:36:02.288Z,3.92
2022-11-25T22:38:30.020Z,3.03
2022-11-25T22:41:01.012Z,3.00
2022-11-25T22:43:38.864Z,3.45
2022-11-25T22:46:05.790Z,3.20
2022-11-25T22:48:35.862Z,3.22
2022-11-25T22:51:03.054Z,3.60
2022-11-25T22:53:30.080Z,2.95
2022-11-25T22:55:58.501Z,3.30
2022-11-25T22:58:26.801Z,3.28
2022-11-25T23:00:55.785Z,3.35
2022-11-25T23:03:27.434Z,3.58
2022-11-25T23:05:54.414Z,3.20
2022-11-25T23:08:28.415Z,3.20
2022-11-25T23:10:56.577Z,3.05
2022-11-25T23:13:25.917Z,3.67
2022-11-25T23:15:54.755Z,3.45
2022-11-25T23:18:45.458Z,3.58
2022-11-25T23:21:21.776Z,3.63
2022-11-25T23:23:48.318Z,4.13
2022-11-25T23:26:15.842Z,3.38
2022-11-25T23:28:43.071Z,3.13
2022-11-25T23:31:13.770Z,3.80
2022-11-25T23:33:51.583Z,3.63
2022-11-25T23:36:24.819Z,3.40
2022-11-25T23:39:03.022Z,3.35
2022-11-25T23:44:02.100Z,3.53
2022-11-25T23:46:33.382Z,2.92
2022-11-25T23:49:03.557Z,3.72
2022-11-25T23:51:31.285Z,3.47
2022-11-25T23:53:58.940Z,3.75
2022-11-25T23:56:28.269Z,3.47
2022-11-25T23:58:54.805Z,3.78
